Time;durP1;ratioP1;P1;durP2;ratioP2;P2;SDS_P1;SDS_P2;PMS_P1;PMS_P2;Temp;Humidity;BMP_temperature;BMP_pressure;BME280_temperature;BME280_humidity;BME280_pressure;Samples;Min_cycle;Max_cycle;Signal;HPM_P1;HPM_P2
2021/12/14 00:01:36;;;;;;;14.60;8.05;;;1.10;99.90;;;;;;5052908;28;20484;-77
2021/12/14 00:04:28;;;;;;;12.55;7.50;;;1.10;99.90;;;;;;5054645;28;20459;-77
2021/12/14 00:06:54;;;;;;;12.82;7.80;;;1.10;99.90;;;;;;5042955;28;20036;-77
2021/12/14 00:09:27;;;;;;;10.70;6.60;;;1.10;99.90;;;;;;5034898;28;20030;-77
2021/12/14 00:17:25;;;;;;;10.95;6.47;;;1.20;99.90;;;;;;5039993;28;20500;-77
2021/12/14 00:19:53;;;;;;;12.40;6.60;;;1.20;99.90;;;;;;5051152;28;20028;-77
2021/12/14 00:22:36;;;;;;;10.27;6.40;;;1.20;99.90;;;;;;5053356;28;20031;-78
2021/12/14 00:25:04;;;;;;;10.38;6.53;;;1.20;99.90;;;;;;5054001;28;20033;-77
2021/12/14 00:27:30;;;;;;;12.25;7.22;;;1.20;99.90;;;;;;5043955;28;20104;-77
2021/12/14 00:29:59;;;;;;;13.07;6.70;;;1.20;99.90;;;;;;5054135;28;20367;-76
2021/12/14 00:32:29;;;;;;;12.23;7.10;;;1.20;99.90;;;;;;5054033;28;20367;-76
2021/12/14 00:34:59;;;;;;;12.23;7.45;;;1.20;99.90;;;;;;5052906;28;20025;-76
2021/12/14 00:37:30;;;;;;;11.68;7.22;;;1.20;99.90;;;;;;5052605;28;20029;-76
2021/12/14 00:39:59;;;;;;;11.63;6.95;;;1.20;99.90;;;;;;5034142;28;20032;-76
2021/12/14 00:42:26;;;;;;;10.77;6.20;;;1.30;99.90;;;;;;5043202;28;20551;-76
2021/12/14 00:44:52;;;;;;;11.27;6.40;;;1.20;99.90;;;;;;5053515;28;20029;-76
2021/12/14 00:47:18;;;;;;;9.27;6.03;;;1.30;99.90;;;;;;5044249;28;20035;-76
2021/12/14 00:49:45;;;;;;;10.65;6.20;;;1.30;99.90;;;;;;5034257;28;20027;-76
2021/12/14 00:52:11;;;;;;;12.82;6.28;;;1.30;99.90;;;;;;5035034;28;20025;-76
2021/12/14 00:54:37;;;;;;;10.70;6.22;;;1.30;99.90;;;;;;5033837;28;20389;-76
2021/12/14 00:57:05;;;;;;;10.07;6.07;;;1.20;99.90;;;;;;5033416;28;20043;-77
2021/12/14 00:59:32;;;;;;;10.77;5.82;;;1.20;99.90;;;;;;5032530;28;20478;-76
2021/12/14 01:02:10;;;;;;;10.73;6.32;;;1.20;99.90;;;;;;5044020;28;20496;-77
2021/12/14 01:04:47;;;;;;;12.57;6.10;;;1.20;99.90;;;;;;5039791;28;20021;-76
2021/12/14 01:07:15;;;;;;;12.48;6.88;;;1.20;99.90;;;;;;5046576;28;20025;-76
2021/12/14 01:09:47;;;;;;;12.43;7.03;;;1.20;99.90;;;;;;5033272;28;20079;-76
2021/12/14 01:12:20;;;;;;;16.65;9.10;;;1.20;99.90;;;;;;5036089;28;20029;-77
2021/12/14 01:15:11;;;;;;;17.80;9.45;;;1.20;99.90;;;;;;5053225;28;20031;-76
2021/12/14 01:17:42;;;;;;;;;;;1.20;99.90;;;;;;5051203;28;20041;-76
2021/12/14 01:20:11;;;;;;;14.73;7.57;;;1.10;99.90;;;;;;5052742;28;19905;-76
2021/12/14 01:22:44;;;;;;;13.00;6.97;;;1.10;99.90;;;;;;5053599;28;20048;-77
2021/12/14 01:25:26;;;;;;;13.27;6.45;;;1.10;99.90;;;;;;5056067;28;20443;-77
2021/12/14 01:28:00;;;;;;;13.70;6.65;;;1.10;99.90;;;;;;5057269;28;20029;-77
2021/12/14 01:30:57;;;;;;;11.43;6.25;;;1.10;99.90;;;;;;5056778;28;20021;-76
2021/12/14 01:33:25;;;;;;;10.63;6.03;;;1.10;99.90;;;;;;5057157;28;20021;-76
2021/12/14 01:35:52;;;;;;;11.50;5.53;;;1.10;99.90;;;;;;5057121;28;20477;-76
2021/12/14 01:40:56;;;;;;;12.48;6.18;;;1.10;99.90;;;;;;5057257;28;20021;-77
2021/12/14 01:43:32;;;;;;;7.85;3.83;;;1.10;99.90;;;;;;5057512;28;20104;-77
2021/12/14 01:46:01;;;;;;;8.77;4.97;;;1.20;99.90;;;;;;5057405;28;20025;-77
2021/12/14 01:48:28;;;;;;;10.02;5.03;;;1.20;99.90;;;;;;5057383;28;20033;-77
2021/12/14 01:51:01;;;;;;;9.05;4.63;;;1.20;99.90;;;;;;5053986;28;20017;-77
2021/12/14 01:53:27;;;;;;;10.25;5.07;;;1.20;99.90;;;;;;5057519;28;20025;-78
2021/12/14 01:55:58;;;;;;;11.93;5.78;;;1.20;99.90;;;;;;5056348;28;20040;-77
2021/12/14 01:58:32;;;;;;;12.60;6.40;;;1.20;99.90;;;;;;5057783;28;20063;-77
2021/12/14 02:01:04;;;;;;;10.68;5.25;;;1.20;99.90;;;;;;5057685;28;20271;-78
2021/12/14 02:03:41;;;;;;;13.35;5.40;;;1.20;99.90;;;;;;5057137;28;20047;-78
2021/12/14 02:06:07;;;;;;;9.57;4.57;;;1.20;99.90;;;;;;5056360;28;20032;-78
2021/12/14 02:08:37;;;;;;;10.07;4.97;;;1.20;99.90;;;;;;5056227;28;20366;-78
2021/12/14 02:11:06;;;;;;;10.75;5.20;;;1.20;99.90;;;;;;5057601;28;20025;-77
2021/12/14 02:13:41;;;;;;;10.48;5.30;;;1.20;99.90;;;;;;5055178;28;20029;-77
2021/12/14 02:16:10;;;;;;;11.25;6.15;;;1.20;99.90;;;;;;5037041;28;20486;-77
2021/12/14 02:18:36;;;;;;;12.85;5.63;;;1.20;99.90;;;;;;5037648;28;20033;-78
2021/12/14 02:21:09;;;;;;;12.63;6.07;;;1.20;99.90;;;;;;5037529;28;20030;-78
2021/12/14 02:23:38;;;;;;;10.20;5.30;;;1.20;99.90;;;;;;5037364;28;20032;-78
2021/12/14 02:26:14;;;;;;;11.18;5.50;;;1.20;99.90;;;;;;5037936;28;20385;-78
2021/12/14 02:28:40;;;;;;;10.75;6.20;;;1.20;99.90;;;;;;5038014;28;20022;-78
2021/12/14 02:31:10;;;;;;;10.18;5.50;;;1.20;99.90;;;;;;5036494;28;20048;-78
2021/12/14 02:33:39;;;;;;;10.82;5.47;;;1.20;99.90;;;;;;5037539;28;20117;-78
2021/12/14 02:36:12;;;;;;;11.45;5.68;;;1.20;99.90;;;;;;5037323;28;20049;-76
2021/12/14 02:38:47;;;;;;;12.73;6.63;;;1.20;99.90;;;;;;5054975;28;20032;-78
2021/12/14 02:41:14;;;;;;;9.93;5.22;;;1.20;99.90;;;;;;5057238;28;20098;-78
2021/12/14 02:43:52;;;;;;;11.50;6.07;;;1.20;99.90;;;;;;5056792;28;20036;-78
2021/12/14 02:46:20;;;;;;;9.95;5.03;;;1.20;99.90;;;;;;5057313;28;20565;-78
2021/12/14 02:48:49;;;;;;;10.07;5.43;;;1.20;99.90;;;;;;5057236;28;20383;-77
2021/12/14 02:51:23;;;;;;;13.63;6.78;;;1.20;99.90;;;;;;5056779;28;20021;-78
2021/12/14 02:53:52;;;;;;;14.90;7.78;;;1.20;99.90;;;;;;5055658;28;20567;-77
2021/12/14 02:56:23;;;;;;;15.20;8.02;;;1.20;99.90;;;;;;5055594;28;20025;-77
2021/12/14 02:58:55;;;;;;;14.52;7.30;;;1.10;99.90;;;;;;5055069;28;20048;-78
2021/12/14 03:01:21;;;;;;;19.58;9.25;;;1.10;99.90;;;;;;5056338;28;20032;-77
2021/12/14 03:03:47;;;;;;;27.05;11.52;;;1.10;99.90;;;;;;5056553;28;20393;-77
2021/12/14 03:06:20;;;;;;;33.67;13.55;;;1.10;99.90;;;;;;5056322;28;20057;-77
2021/12/14 03:08:57;;;;;;;33.00;14.13;;;1.10;99.90;;;;;;5056746;28;20059;-78
2021/12/14 03:11:24;;;;;;;33.17;15.25;;;1.10;99.90;;;;;;5057155;28;20366;-78
2021/12/14 03:13:52;;;;;;;28.25;13.23;;;1.10;99.90;;;;;;5055864;28;20059;-77
2021/12/14 03:16:23;;;;;;;25.85;11.38;;;1.10;99.90;;;;;;5056720;28;20052;-77
2021/12/14 03:18:50;;;;;;;19.30;8.85;;;1.10;99.90;;;;;;5056629;28;20029;-77
2021/12/14 03:21:24;;;;;;;12.88;7.35;;;1.10;99.90;;;;;;5056700;28;20400;-77
2021/12/14 03:23:56;;;;;;;13.20;6.32;;;1.10;99.90;;;;;;5052743;28;20025;-77
2021/12/14 03:26:27;;;;;;;11.65;5.63;;;1.10;99.90;;;;;;5056265;28;20016;-77
2021/12/14 03:28:57;;;;;;;10.18;5.18;;;1.00;99.90;;;;;;5055948;28;20079;-77
2021/12/14 03:31:39;;;;;;;10.00;4.72;;;1.10;99.90;;;;;;5054021;28;20029;-77
2021/12/14 03:34:12;;;;;;;9.95;4.35;;;1.10;99.90;;;;;;5054886;28;20424;-77
2021/12/14 03:36:47;;;;;;;9.02;4.53;;;1.10;99.90;;;;;;5054117;28;20508;-77
2021/12/14 03:39:20;;;;;;;10.35;4.68;;;1.10;99.90;;;;;;5054121;28;20103;-77
2021/12/14 03:41:53;;;;;;;9.80;4.63;;;1.10;99.90;;;;;;5054127;28;20071;-78
2021/12/14 03:44:26;;;;;;;9.85;4.88;;;1.10;99.90;;;;;;5055115;28;20025;-77
2021/12/14 03:46:57;;;;;;;9.27;4.65;;;1.10;99.90;;;;;;5053035;28;20078;-77
2021/12/14 03:49:34;;;;;;;10.68;5.07;;;1.10;99.90;;;;;;5054767;28;20032;-77
2021/12/14 03:52:01;;;;;;;10.32;5.32;;;1.10;99.90;;;;;;5054792;28;20025;-78
2021/12/14 03:54:27;;;;;;;9.23;4.70;;;1.10;99.90;;;;;;5054655;28;20071;-77
2021/12/14 03:56:53;;;;;;;10.45;5.40;;;1.20;99.90;;;;;;5054311;28;20032;-77
2021/12/14 03:59:19;;;;;;;11.38;5.65;;;1.20;99.90;;;;;;5054382;28;20017;-76
2021/12/14 04:01:48;;;;;;;9.60;4.93;;;1.20;99.90;;;;;;5054613;28;20082;-77
2021/12/14 04:04:28;;;;;;;11.05;5.28;;;1.20;99.90;;;;;;5054266;28;20028;-76
2021/12/14 04:06:57;;;;;;;11.73;5.38;;;1.10;99.90;;;;;;5054024;28;20470;-76
2021/12/14 04:09:27;;;;;;;12.73;5.60;;;1.10;99.90;;;;;;5049995;28;20538;-76
2021/12/14 04:11:53;;;;;;;9.20;5.10;;;1.10;99.90;;;;;;5054003;28;20036;-76
2021/12/14 04:14:20;;;;;;;11.95;5.97;;;1.10;99.90;;;;;;5053806;28;20481;-77
2021/12/14 04:16:49;;;;;;;11.18;5.45;;;1.10;99.90;;;;;;5052665;28;20025;-77
2021/12/14 04:19:25;;;;;;;12.52;5.70;;;1.10;99.90;;;;;;5052538;28;20043;-77
2021/12/14 04:21:52;;;;;;;12.40;6.10;;;1.10;99.90;;;;;;5053824;28;20021;-77
2021/12/14 04:24:25;;;;;;;14.48;7.40;;;1.10;99.90;;;;;;5053255;28;20021;-77
2021/12/14 04:26:54;;;;;;;13.85;6.68;;;1.10;99.90;;;;;;5053595;28;20025;-77
2021/12/14 04:29:19;;;;;;;14.40;6.30;;;1.10;99.90;;;;;;5053906;28;20032;-77
2021/12/14 04:31:47;;;;;;;11.63;7.50;;;1.10;99.90;;;;;;5053424;28;20029;-76
2021/12/14 04:34:14;;;;;;;13.23;5.97;;;1.10;99.90;;;;;;5053975;28;20393;-76
2021/12/14 04:36:43;;;;;;;11.90;6.15;;;1.10;99.90;;;;;;5053943;28;20032;-76
2021/12/14 04:53:23;;;;;;;16.10;7.35;;;1.00;99.90;;;;;;5053975;28;20075;-76
2021/12/14 04:55:52;;;;;;;16.77;7.25;;;1.00;99.90;;;;;;5050583;28;20403;-76
2021/12/14 04:58:31;;;;;;;14.50;6.47;;;1.10;99.90;;;;;;5052255;28;20032;-76
2021/12/14 05:00:59;;;;;;;13.50;6.10;;;1.10;99.90;;;;;;5053235;28;20512;-76
2021/12/14 05:04:09;;;;;;;12.85;5.97;;;1.10;99.90;;;;;;5053015;28;20122;-76
2021/12/14 05:06:49;;;;;;;10.93;5.35;;;1.10;99.90;;;;;;5051493;28;20033;-76
2021/12/14 05:09:29;;;;;;;12.70;6.40;;;1.10;99.90;;;;;;5053122;28;20020;-76
2021/12/14 05:12:07;;;;;;;13.07;6.10;;;1.10;99.90;;;;;;5053185;28;20062;-76
2021/12/14 05:14:34;;;;;;;12.88;6.53;;;1.10;99.90;;;;;;5053226;28;20452;-76
2021/12/14 05:17:04;;;;;;;13.13;6.47;;;1.10;99.90;;;;;;5053004;28;20043;-76
2021/12/14 05:19:34;;;;;;;23.17;11.10;;;1.10;99.90;;;;;;5052903;28;20032;-76
2021/12/14 05:22:06;;;;;;;27.98;12.48;;;1.10;99.90;;;;;;5053632;28;20029;-75
2021/12/14 05:24:32;;;;;;;38.85;17.52;;;1.10;99.90;;;;;;5052932;28;20504;-76
2021/12/14 05:27:02;;;;;;;38.53;18.83;;;1.10;99.90;;;;;;5052966;28;20500;-76
2021/12/14 05:29:29;;;;;;;40.38;18.42;;;1.10;99.90;;;;;;5053302;28;20055;-76
2021/12/14 05:31:58;;;;;;;35.92;17.25;;;1.10;99.90;;;;;;5053344;28;20028;-75
2021/12/14 05:34:25;;;;;;;33.67;16.00;;;1.10;99.90;;;;;;5052935;28;20021;-75
2021/12/14 05:36:51;;;;;;;27.65;14.55;;;1.10;99.90;;;;;;5052606;28;20025;-76
2021/12/14 05:44:37;;;;;;;16.35;7.18;;;1.10;99.90;;;;;;5053187;28;20393;-75
2021/12/14 05:47:10;;;;;;;11.10;5.80;;;1.20;99.90;;;;;;5052848;28;20076;-76
2021/12/14 05:49:38;;;;;;;12.48;5.72;;;1.20;99.90;;;;;;5052767;28;20271;-76
2021/12/14 05:52:19;;;;;;;12.10;4.60;;;1.20;99.90;;;;;;5051554;28;20031;-76
2021/12/14 05:54:46;;;;;;;;;;;1.10;99.90;;;;;;5052605;28;20032;-76
2021/12/14 05:57:20;;;;;;;7.72;4.35;;;1.10;99.90;;;;;;5052497;28;20424;-76
2021/12/14 05:59:46;;;;;;;12.57;5.93;;;1.10;99.90;;;;;;5051331;28;20025;-76
2021/12/14 06:02:13;;;;;;;10.02;5.10;;;1.10;99.90;;;;;;5052762;28;20124;-76
2021/12/14 06:04:46;;;;;;;9.40;4.65;;;1.10;99.90;;;;;;5052577;28;20456;-75
2021/12/14 06:07:12;;;;;;;9.52;5.07;;;1.10;99.90;;;;;;5051319;28;20095;-76
2021/12/14 06:09:42;;;;;;;9.63;5.10;;;1.10;99.90;;;;;;5054824;28;20062;-76
2021/12/14 06:12:22;;;;;;;9.40;5.30;;;1.10;99.90;;;;;;5055152;28;20028;-76
2021/12/14 06:14:52;;;;;;;8.93;4.75;;;1.20;99.90;;;;;;5056324;28;20029;-76
2021/12/14 06:17:39;;;;;;;8.70;4.40;;;1.20;99.90;;;;;;5054927;28;20025;-76
2021/12/14 06:20:23;;;;;;;7.25;3.95;;;1.20;99.90;;;;;;5055004;28;20074;-76
2021/12/14 06:22:52;;;;;;;7.25;3.45;;;1.20;99.90;;;;;;5054927;28;20032;-76
2021/12/14 06:25:24;;;;;;;5.18;3.17;;;1.20;99.90;;;;;;5054784;28;20041;-76
2021/12/14 06:27:53;;;;;;;6.50;3.00;;;1.20;99.90;;;;;;5053171;28;20363;-76
2021/12/14 06:30:26;;;;;;;6.00;2.78;;;1.20;99.90;;;;;;5054837;28;20021;-76
2021/12/14 06:33:03;;;;;;;5.80;3.13;;;1.20;99.90;;;;;;5056310;28;20508;-76
2021/12/14 06:35:35;;;;;;;5.13;2.72;;;1.20;99.90;;;;;;5055467;28;20016;-76
2021/12/14 06:40:43;;;;;;;6.63;3.27;;;1.10;99.90;;;;;;5056057;28;20040;-76
2021/12/14 06:43:13;;;;;;;7.00;3.58;;;1.10;99.90;;;;;;5055693;28;20044;-76
2021/12/14 06:45:43;;;;;;;6.83;3.90;;;1.10;99.90;;;;;;5054199;28;20108;-76
2021/12/14 06:48:20;;;;;;;9.90;5.07;;;1.10;99.90;;;;;;5055398;28;20025;-76
2021/12/14 06:50:49;;;;;;;8.55;4.68;;;1.10;99.90;;;;;;5054800;28;20120;-75
2021/12/14 06:53:19;;;;;;;7.18;3.78;;;1.10;99.90;;;;;;5056011;28;20485;-76
2021/12/14 06:55:48;;;;;;;5.43;3.28;;;1.10;99.90;;;;;;5055845;28;20040;-76
2021/12/14 06:58:23;;;;;;;4.85;2.40;;;1.10;99.90;;;;;;5055435;28;20024;-76
2021/12/14 07:00:57;;;;;;;4.68;2.50;;;1.10;99.90;;;;;;5056027;28;20025;-76
2021/12/14 07:03:33;;;;;;;3.88;2.03;;;1.10;99.90;;;;;;5055954;28;20392;-76
2021/12/14 07:05:59;;;;;;;3.97;2.17;;;1.10;99.90;;;;;;5054040;28;20062;-75
2021/12/14 07:08:26;;;;;;;4.75;2.28;;;1.20;99.90;;;;;;5055576;28;20024;-76
2021/12/14 07:10:53;;;;;;;4.50;2.33;;;1.20;99.90;;;;;;5055731;28;20109;-77
2021/12/14 07:13:27;;;;;;;6.05;2.42;;;1.10;99.90;;;;;;5052295;28;20461;-76
2021/12/14 07:15:53;;;;;;;4.72;2.20;;;1.20;99.90;;;;;;5054247;28;20060;-76
2021/12/14 07:18:25;;;;;;;3.88;2.00;;;1.10;99.90;;;;;;5054967;28;20507;-76
2021/12/14 07:20:51;;;;;;;3.92;1.90;;;1.20;99.90;;;;;;5054098;28;20025;-76
2021/12/14 07:23:33;;;;;;;3.70;1.58;;;1.10;99.90;;;;;;5054878;28;20021;-76
2021/12/14 07:26:05;;;;;;;3.55;2.00;;;1.20;99.90;;;;;;5054258;28;20561;-76
2021/12/14 07:28:36;;;;;;;4.65;1.98;;;1.20;99.90;;;;;;5054614;28;20033;-76
2021/12/14 07:31:12;;;;;;;3.47;2.15;;;1.20;99.90;;;;;;5054791;28;20381;-76
2021/12/14 07:33:47;;;;;;;4.43;2.20;;;1.20;99.90;;;;;;5053619;28;20067;-76
2021/12/14 07:36:24;;;;;;;5.00;2.38;;;1.20;99.90;;;;;;5054368;28;20025;-76
2021/12/14 07:38:59;;;;;;;3.67;2.13;;;1.20;99.90;;;;;;5054730;28;20507;-75
2021/12/14 07:41:56;;;;;;;3.38;1.80;;;1.20;99.90;;;;;;5055027;28;20036;-77
2021/12/14 07:44:27;;;;;;;4.70;2.47;;;1.20;99.90;;;;;;5055208;28;20037;-77
2021/12/14 07:47:01;;;;;;;4.82;2.35;;;1.20;99.90;;;;;;5054883;28;20029;-76
2021/12/14 07:49:35;;;;;;;4.18;2.25;;;1.20;99.90;;;;;;5055052;28;20045;-76
2021/12/14 07:52:09;;;;;;;3.67;2.15;;;1.20;99.90;;;;;;5055204;28;20374;-76
2021/12/14 07:54:58;;;;;;;4.90;2.50;;;1.20;99.90;;;;;;5054486;28;20074;-76
2021/12/14 07:57:36;;;;;;;4.25;2.33;;;1.20;99.90;;;;;;5054817;28;20029;-77
2021/12/14 08:00:22;;;;;;;4.88;2.40;;;1.30;99.90;;;;;;5051205;28;20025;-77
2021/12/14 08:02:52;;;;;;;5.53;2.60;;;1.30;99.90;;;;;;5053168;28;20029;-77
2021/12/14 08:05:23;;;;;;;6.18;2.80;;;1.30;99.90;;;;;;5054288;28;20032;-77
2021/12/14 08:07:54;;;;;;;7.25;3.20;;;1.30;99.90;;;;;;5053941;28;20109;-77
2021/12/14 08:10:24;;;;;;;;;;;1.30;99.90;;;;;;5054482;28;20079;-76
2021/12/14 08:13:18;;;;;;;6.05;3.47;;;1.40;99.90;;;;;;5052709;28;19912;-76
2021/12/14 08:15:53;;;;;;;5.88;3.30;;;1.50;99.90;;;;;;5054061;28;20024;-76
2021/12/14 08:18:29;;;;;;;4.85;2.97;;;1.50;99.90;;;;;;5054294;28;20017;-77
2021/12/14 08:21:06;;;;;;;6.75;3.33;;;1.50;99.90;;;;;;5054229;28;20029;-76
2021/12/14 08:23:33;;;;;;;7.88;3.50;;;1.50;99.90;;;;;;5053466;28;20477;-76
2021/12/14 08:26:03;;;;;;;8.25;4.40;;;1.60;99.90;;;;;;5053805;28;20116;-76
2021/12/14 08:28:29;;;;;;;7.65;4.38;;;1.60;99.90;;;;;;5052439;28;20071;-76
2021/12/14 08:31:00;;;;;;;6.60;3.80;;;1.70;99.90;;;;;;5054070;28;20056;-76
2021/12/14 08:33:28;;;;;;;6.30;3.50;;;1.80;99.90;;;;;;5052217;28;20465;-76
2021/12/14 08:36:00;;;;;;;8.77;5.03;;;1.80;99.90;;;;;;5052267;28;20481;-76
2021/12/14 08:38:28;;;;;;;6.40;4.07;;;1.90;99.90;;;;;;5053710;28;20028;-76
2021/12/14 08:40:59;;;;;;;6.90;4.00;;;2.00;99.90;;;;;;5053462;28;20032;-75
2021/12/14 08:43:32;;;;;;;8.48;4.57;;;2.00;99.90;;;;;;5054095;28;20473;-76
2021/12/14 08:46:10;;;;;;;9.00;4.55;;;2.10;99.90;;;;;;5050718;28;20033;-75
2021/12/14 08:48:46;;;;;;;6.13;3.35;;;2.10;99.90;;;;;;5052854;28;20393;-75
2021/12/14 08:51:20;;;;;;;4.47;2.58;;;2.10;99.90;;;;;;5035798;28;20439;-75
2021/12/14 08:54:04;;;;;;;4.93;2.63;;;2.10;99.90;;;;;;5031740;28;20482;-76
2021/12/14 08:56:32;;;;;;;4.68;2.38;;;2.10;99.90;;;;;;5032918;28;20116;-75
2021/12/14 08:58:59;;;;;;;3.95;2.35;;;2.10;99.90;;;;;;5037683;28;20465;-75
2021/12/14 09:01:28;;;;;;;4.18;2.33;;;2.10;99.90;;;;;;5052694;28;20155;-75
2021/12/14 09:04:02;;;;;;;4.60;2.45;;;2.10;99.90;;;;;;5052916;28;20021;-76
2021/12/14 09:06:32;;;;;;;5.65;3.42;;;2.10;99.90;;;;;;5053504;28;20366;-75
2021/12/14 09:09:02;;;;;;;6.13;3.37;;;2.10;99.90;;;;;;5052041;28;20021;-75
2021/12/14 09:11:33;;;;;;;13.35;3.63;;;2.00;99.90;;;;;;5051508;28;20041;-75
2021/12/14 09:13:59;;;;;;;6.80;3.33;;;2.00;99.90;;;;;;5051405;28;20116;-75
2021/12/14 09:16:29;;;;;;;6.70;3.33;;;2.00;99.90;;;;;;5051581;28;20106;-75
2021/12/14 09:19:20;;;;;;;5.57;2.60;;;2.00;99.90;;;;;;5051884;28;20036;-75
2021/12/14 09:21:49;;;;;;;5.22;2.30;;;2.00;99.90;;;;;;5051160;28;20040;-76
2021/12/14 09:24:21;;;;;;;4.68;2.28;;;2.00;99.90;;;;;;5052280;28;20041;-76
2021/12/14 09:26:57;;;;;;;7.20;3.10;;;2.10;99.90;;;;;;5053575;28;20033;-76
2021/12/14 09:29:24;;;;;;;6.30;3.25;;;2.10;99.90;;;;;;5053379;28;20064;-76
2021/12/14 09:31:53;;;;;;;9.45;4.90;;;2.20;99.90;;;;;;5050030;28;20044;-76
2021/12/14 09:34:22;;;;;;;9.85;4.82;;;2.30;99.90;;;;;;5051428;28;20021;-75
2021/12/14 09:36:50;;;;;;;8.27;4.00;;;2.30;99.90;;;;;;5052443;28;20021;-75
2021/12/14 09:39:30;;;;;;;6.90;3.40;;;2.40;99.90;;;;;;5053111;28;20461;-75
2021/12/14 09:41:58;;;;;;;7.15;3.97;;;2.40;99.90;;;;;;5052956;28;20499;-76
2021/12/14 09:44:27;;;;;;;5.97;3.40;;;2.40;99.90;;;;;;5053717;28;20334;-76
2021/12/14 09:46:57;;;;;;;5.80;2.97;;;2.40;99.90;;;;;;5055982;28;20409;-75
2021/12/14 09:49:23;;;;;;;5.85;3.00;;;2.40;99.90;;;;;;5057103;28;20021;-75
2021/12/14 09:51:53;;;;;;;5.20;2.85;;;2.40;99.90;;;;;;5056800;28;20021;-75
2021/12/14 09:54:22;;;;;;;5.07;2.92;;;2.40;99.90;;;;;;5056475;28;20025;-74
2021/12/14 09:56:59;;;;;;;4.72;2.67;;;2.40;99.90;;;;;;5056567;28;20024;-75
2021/12/14 09:59:26;;;;;;;6.20;3.10;;;2.30;99.90;;;;;;5055395;28;20037;-75
2021/12/14 10:01:59;;;;;;;5.88;3.53;;;2.40;99.90;;;;;;5056592;28;20033;-74
2021/12/14 10:04:32;;;;;;;17.90;8.82;;;2.40;99.90;;;;;;5056906;28;20051;-75
2021/12/14 10:07:02;;;;;;;14.25;7.38;;;2.40;99.90;;;;;;5056942;28;20021;-75
2021/12/14 10:09:31;;;;;;;12.52;7.30;;;2.40;99.90;;;;;;5056523;28;20017;-73
2021/12/14 10:12:49;;;;;;;13.65;6.60;;;2.50;99.90;;;;;;5055929;28;20021;-74
2021/12/14 10:14:53;;;;;;;15.65;8.60;;;2.50;99.90;;;;;;5065940;28;20029;-75
2021/12/14 10:17:24;;;;;;;23.38;12.00;;;2.60;99.90;;;;;;5053253;28;20031;-76
2021/12/14 10:19:50;;;;;;;24.65;12.75;;;2.60;99.90;;;;;;5055930;28;20075;-75
2021/12/14 10:22:24;;;;;;;16.83;9.05;;;2.60;99.90;;;;;;5056031;28;20036;-75
2021/12/14 10:24:52;;;;;;;16.55;9.38;;;2.70;99.90;;;;;;5054699;28;20041;-75
2021/12/14 10:27:21;;;;;;;15.77;7.75;;;2.80;99.90;;;;;;5054190;28;20029;-75
2021/12/14 10:29:47;;;;;;;14.13;7.05;;;2.80;99.90;;;;;;5055938;28;20481;-74
2021/12/14 10:32:19;;;;;;;10.35;6.20;;;2.80;99.90;;;;;;5055719;28;20032;-74
2021/12/14 10:34:55;;;;;;;9.95;5.25;;;2.90;99.90;;;;;;5056232;28;20044;-75
2021/12/14 10:37:45;;;;;;;7.35;4.55;;;2.80;99.90;;;;;;5054682;28;20028;-75
2021/12/14 10:43:16;;;;;;;9.85;4.68;;;2.80;99.90;;;;;;5055614;28;20027;-72
2021/12/14 10:45:48;;;;;;;10.90;5.07;;;2.80;99.90;;;;;;5055745;28;20043;-75
2021/12/14 10:48:19;;;;;;;9.63;4.28;;;2.90;99.90;;;;;;5055413;28;20039;-74
2021/12/14 10:50:47;;;;;;;10.10;4.75;;;2.80;99.90;;;;;;5051079;28;20025;-73
2021/12/14 10:53:14;;;;;;;8.38;4.40;;;2.90;99.90;;;;;;5044107;28;20503;-74
2021/12/14 10:55:51;;;;;;;10.32;5.32;;;2.90;99.90;;;;;;5055575;28;20519;-74
2021/12/14 10:58:20;;;;;;;38.35;14.88;;;2.90;99.90;;;;;;5055638;28;20376;-73
2021/12/14 11:00:59;;;;;;;23.52;10.90;;;2.90;99.90;;;;;;5060403;28;20020;-74
2021/12/14 11:03:29;;;;;;;15.98;7.47;;;2.90;99.90;;;;;;5056976;28;20025;-74
2021/12/14 11:05:59;;;;;;;15.15;6.78;;;3.00;99.90;;;;;;5054684;28;20028;-74
2021/12/14 11:08:46;;;;;;;17.45;7.80;;;3.10;99.90;;;;;;5053634;28;20033;-74
2021/12/14 11:11:18;;;;;;;13.55;6.65;;;3.10;99.90;;;;;;5050463;28;20403;-74
2021/12/14 11:13:50;;;;;;;10.73;5.38;;;3.10;99.90;;;;;;5048909;28;20053;-74
2021/12/14 11:16:21;;;;;;;;;;;3.20;99.90;;;;;;5043950;28;20025;-74
2021/12/14 11:18:48;;;;;;;14.73;6.47;;;3.20;99.90;;;;;;5054934;28;19905;-74
2021/12/14 11:21:21;;;;;;;35.45;16.10;;;3.20;99.90;;;;;;5055008;28;20085;-74
2021/12/14 11:23:49;;;;;;;24.58;12.70;;;3.20;99.90;;;;;;5050614;28;20075;-74
2021/12/14 11:26:21;;;;;;;9.88;5.78;;;3.20;99.90;;;;;;5038385;28;20018;-74
2021/12/14 11:28:49;;;;;;;13.55;6.50;;;3.10;99.90;;;;;;5034938;28;20075;-74
2021/12/14 11:31:24;;;;;;;9.07;4.43;;;3.00;99.90;;;;;;5035429;28;20476;-75
2021/12/14 11:34:05;;;;;;;6.97;2.60;;;3.00;99.90;;;;;;5035256;28;20029;-74
2021/12/14 11:36:38;;;;;;;3.55;2.10;;;3.00;99.90;;;;;;5033553;28;20024;-74
2021/12/14 11:39:12;;;;;;;4.88;2.50;;;3.00;99.90;;;;;;5034967;28;20482;-74
2021/12/14 11:41:42;;;;;;;4.63;2.42;;;3.00;99.90;;;;;;5035799;28;20029;-74
2021/12/14 11:44:16;;;;;;;5.35;3.15;;;3.00;99.90;;;;;;5043368;28;20381;-74
2021/12/14 11:47:12;;;;;;;4.78;2.88;;;3.10;99.90;;;;;;5054197;28;20024;-73
2021/12/14 11:49:43;;;;;;;7.20;4.43;;;3.10;99.90;;;;;;5050231;28;20056;-75
2021/12/14 11:52:10;;;;;;;7.75;4.32;;;3.10;99.90;;;;;;5052460;28;20029;-74
2021/12/14 11:54:43;;;;;;;7.47;4.57;;;3.10;99.90;;;;;;5054281;28;20070;-75
2021/12/14 11:57:09;;;;;;;8.02;4.13;;;3.10;99.90;;;;;;5052486;28;20112;-75
2021/12/14 11:59:36;;;;;;;7.95;3.95;;;3.10;99.90;;;;;;5054033;28;20017;-74
2021/12/14 12:02:03;;;;;;;7.95;4.25;;;3.10;99.90;;;;;;5054397;28;20035;-75
2021/12/14 12:04:34;;;;;;;8.63;4.00;;;3.00;99.90;;;;;;5053090;28;20036;-74
2021/12/14 12:09:52;;;;;;;8.63;5.05;;;3.00;99.90;;;;;;5054788;28;20356;-73
2021/12/14 12:12:26;;;;;;;11.30;5.60;;;2.90;99.90;;;;;;5053810;28;20147;-74
2021/12/14 12:15:10;;;;;;;12.23;6.78;;;2.90;99.90;;;;;;5049563;28;20024;-75
2021/12/14 12:17:40;;;;;;;9.75;5.43;;;2.80;99.90;;;;;;5034055;28;20508;-75
2021/12/14 12:20:11;;;;;;;9.75;5.38;;;2.80;99.90;;;;;;5043456;28;20492;-75
2021/12/14 12:22:40;;;;;;;9.20;4.82;;;2.80;99.90;;;;;;5053005;28;20025;-75
2021/12/14 12:25:12;;;;;;;8.85;5.03;;;2.70;99.90;;;;;;5053593;28;20489;-75
2021/12/14 12:27:47;;;;;;;8.60;4.90;;;2.70;99.90;;;;;;5051955;28;20028;-73
2021/12/14 12:30:35;;;;;;;7.97;4.82;;;2.70;99.90;;;;;;5053955;28;20021;-73
2021/12/14 12:33:22;;;;;;;9.45;5.32;;;2.70;99.90;;;;;;5053681;28;20103;-73
2021/12/14 12:35:56;;;;;;;9.32;5.20;;;2.70;99.90;;;;;;5053283;28;20100;-73
2021/12/14 12:38:36;;;;;;;9.13;5.22;;;2.60;99.90;;;;;;5033765;28;20057;-73
2021/12/14 12:41:11;;;;;;;8.25;4.30;;;2.60;99.90;;;;;;5032067;28;20029;-73
2021/12/14 12:43:46;;;;;;;8.60;5.18;;;2.60;99.90;;;;;;5033903;28;20027;-73
2021/12/14 12:46:18;;;;;;;9.02;4.97;;;2.50;99.90;;;;;;5033272;28;20030;-73
2021/12/14 12:48:53;;;;;;;9.55;4.82;;;2.50;99.90;;;;;;5033407;28;20108;-73
2021/12/14 12:51:39;;;;;;;10.15;5.43;;;2.50;99.90;;;;;;5033547;28;20044;-73
2021/12/14 12:54:25;;;;;;;9.80;5.10;;;2.40;99.90;;;;;;5032271;28;20052;-73
2021/12/14 12:57:15;;;;;;;7.30;4.20;;;2.40;99.90;;;;;;5033068;28;20030;-74
2021/12/14 13:00:00;;;;;;;9.60;5.30;;;2.40;99.90;;;;;;5032581;28;20029;-73
2021/12/14 13:02:33;;;;;;;9.80;5.22;;;2.40;99.90;;;;;;5033513;28;20104;-73
2021/12/14 13:05:23;;;;;;;9.07;5.55;;;2.40;99.90;;;;;;5032740;28;20066;-73
2021/12/14 13:08:03;;;;;;;10.85;6.18;;;2.50;99.90;;;;;;5031802;28;20060;-73
2021/12/14 13:10:35;;;;;;;9.27;6.38;;;2.50;99.90;;;;;;5033444;28;20032;-73
2021/12/14 13:13:24;;;;;;;10.85;7.00;;;2.50;99.90;;;;;;5033686;28;20381;-74
2021/12/14 13:15:59;;;;;;;8.98;5.18;;;2.50;99.90;;;;;;5033995;28;20018;-73
2021/12/14 13:18:31;;;;;;;8.65;4.57;;;2.50;99.90;;;;;;5033313;28;20112;-73
2021/12/14 13:21:06;;;;;;;10.95;5.18;;;2.50;99.90;;;;;;5051632;28;20025;-74
2021/12/14 13:23:43;;;;;;;8.60;4.95;;;2.40;99.90;;;;;;5057085;28;20512;-73
2021/12/14 13:26:23;;;;;;;9.27;4.95;;;2.40;99.90;;;;;;5055548;28;20028;-74
2021/12/14 13:28:51;;;;;;;11.68;7.30;;;2.40;99.90;;;;;;5057183;28;20116;-73
2021/12/14 13:31:30;;;;;;;14.98;11.60;;;2.40;99.90;;;;;;5057002;28;20082;-73
2021/12/14 13:33:56;;;;;;;18.98;12.25;;;2.40;99.90;;;;;;5057056;28;20104;-72
2021/12/14 13:36:22;;;;;;;16.42;10.90;;;2.40;99.90;;;;;;5052095;28;20114;-74
2021/12/14 13:38:50;;;;;;;13.35;8.30;;;2.40;99.90;;;;;;5052430;28;20033;-73
2021/12/14 13:41:41;;;;;;;15.10;8.73;;;2.40;99.90;;;;;;5046290;28;20017;-74
2021/12/14 13:44:06;;;;;;;16.87;9.80;;;2.40;99.90;;;;;;5048639;28;20489;-73
2021/12/14 13:46:32;;;;;;;19.88;8.75;;;2.30;99.90;;;;;;5045883;28;20255;-73
2021/12/14 13:48:58;;;;;;;15.23;7.78;;;2.30;99.90;;;;;;5046071;28;20071;-73
2021/12/14 13:51:27;;;;;;;14.57;8.07;;;2.30;99.90;;;;;;5049218;28;20017;-74
2021/12/14 13:53:55;;;;;;;15.45;8.40;;;2.30;99.90;;;;;;5047190;28;20022;-72
2021/12/14 13:56:33;;;;;;;14.63;9.07;;;2.20;99.90;;;;;;5048459;28;20041;-72